Time;durP1;ratioP1;P1;durP2;ratioP2;P2;SDS_P1;SDS_P2;PMS_P1;PMS_P2;Temp;Humidity;BMP_temperature;BMP_pressure;BME280_temperature;BME280_humidity;BME280_pressure;Samples;Min_cycle;Max_cycle;Signal;HPM_P1;HPM_P2
2021/12/21 00:02:24;;;;;;;3.25;1.88;;;19.20;56.60;;;;;;5008467;28;88730;-54
2021/12/21 00:04:50;;;;;;;3.40;1.88;;;19.10;56.60;;;;;;5019566;28;87108;-57
2021/12/21 00:07:15;;;;;;;4.55;1.85;;;19.10;56.60;;;;;;5014423;28;88050;-57
2021/12/21 00:09:41;;;;;;;3.60;1.60;;;19.10;56.60;;;;;;4993965;28;92729;-55
2021/12/21 00:12:08;;;;;;;6.40;2.15;;;19.10;56.60;;;;;;5018647;28;87234;-55
2021/12/21 00:14:55;;;;;;;2.72;1.70;;;19.10;56.70;;;;;;5019892;28;87577;-58
2021/12/21 00:25:21;;;;;;;3.67;1.70;;;19.00;56.70;;;;;;5023183;28;88057;-54
2021/12/21 00:27:49;;;;;;;4.70;2.33;;;19.00;56.80;;;;;;5020060;28;89093;-57
2021/12/21 00:30:15;;;;;;;3.17;1.98;;;19.00;56.80;;;;;;5017520;28;88112;-55
2021/12/21 00:32:41;;;;;;;3.63;2.10;;;19.00;56.80;;;;;;5019316;28;88181;-56
2021/12/21 00:35:08;;;;;;;5.28;1.90;;;19.00;56.80;;;;;;5017654;28;88415;-56
2021/12/21 00:37:34;;;;;;;4.82;2.17;;;19.00;56.80;;;;;;5022930;28;90002;-57
2021/12/21 00:39:59;;;;;;;4.95;2.15;;;18.90;56.80;;;;;;4994636;28;91120;-54
2021/12/21 00:42:25;;;;;;;5.50;2.00;;;19.00;56.90;;;;;;5021811;28;87695;-56
2021/12/21 00:44:51;;;;;;;4.15;2.15;;;19.00;56.90;;;;;;5019014;28;87030;-57
2021/12/21 00:47:17;;;;;;;4.70;1.90;;;18.90;56.90;;;;;;5024252;28;87647;-55
2021/12/21 00:49:57;;;;;;;4.95;2.25;;;18.90;56.90;;;;;;5019050;28;88279;-58
2021/12/21 00:52:23;;;;;;;4.90;1.92;;;18.90;56.90;;;;;;5016926;28;88902;-54
2021/12/21 00:54:48;;;;;;;4.53;2.15;;;18.90;56.90;;;;;;5017660;28;87943;-58
2021/12/21 00:57:14;;;;;;;6.38;2.00;;;18.90;56.90;;;;;;5013090;28;88163;-55
2021/12/21 00:59:39;;;;;;;3.45;2.22;;;18.90;57.00;;;;;;5023990;28;87720;-56
2021/12/21 01:02:05;;;;;;;3.70;1.90;;;18.80;56.90;;;;;;5019844;28;88163;-55
2021/12/21 01:04:37;;;;;;;3.80;2.30;;;18.80;56.90;;;;;;5023736;28;88636;-55
2021/12/21 01:12:17;;;;;;;4.18;2.22;;;18.80;56.90;;;;;;5017452;28;87341;-54
2021/12/21 01:17:33;;;;;;;3.05;2.05;;;18.80;57.00;;;;;;5017676;28;89468;-54
2021/12/21 01:26:23;;;;;;;5.18;2.33;;;18.70;56.90;;;;;;5020195;28;87433;-56
2021/12/21 01:28:30;;;;;;;4.00;1.88;;;18.70;56.90;;;;;;5008622;28;88697;-56
2021/12/21 01:31:26;;;;;;;5.03;1.80;;;18.70;57.00;;;;;;5017953;28;88322;-54
2021/12/21 01:36:35;;;;;;;6.22;2.22;;;18.70;57.00;;;;;;5017651;28;87242;-58
2021/12/21 01:42:01;;;;;;;4.05;1.98;;;18.60;56.90;;;;;;4976342;28;87817;-55
2021/12/21 01:49:57;;;;;;;3.28;1.90;;;18.60;57.00;;;;;;5020765;28;87723;-56
2021/12/21 01:52:26;;;;;;;4.85;2.53;;;18.60;57.00;;;;;;5016106;28;88087;-55
2021/12/21 01:54:55;;;;;;;3.85;2.05;;;18.60;57.00;;;;;;5020520;28;88133;-58
2021/12/21 01:57:22;;;;;;;3.83;2.38;;;18.60;57.10;;;;;;5014561;28;87435;-56
2021/12/21 01:59:48;;;;;;;4.53;2.78;;;18.60;57.10;;;;;;5020484;28;88244;-57
2021/12/21 02:02:17;;;;;;;3.22;1.75;;;18.50;57.10;;;;;;5021197;28;88449;-54
2021/12/21 02:04:43;;;;;;;3.33;2.20;;;18.50;57.10;;;;;;5020637;28;87677;-55
2021/12/21 02:07:09;;;;;;;4.20;2.22;;;18.60;57.20;;;;;;5020906;28;87494;-54
2021/12/21 02:09:39;;;;;;;3.72;2.08;;;18.50;57.20;;;;;;5019502;28;89261;-55
2021/12/21 02:12:14;;;;;;;3.65;2.15;;;18.50;57.20;;;;;;5016424;28;88747;-58
2021/12/21 02:14:41;;;;;;;3.60;2.17;;;18.50;57.20;;;;;;5012076;28;87107;-54
2021/12/21 02:20:08;;;;;;;4.45;2.47;;;18.50;57.20;;;;;;5023003;28;87682;-57
2021/12/21 02:22:39;;;;;;;4.50;1.98;;;18.50;57.20;;;;;;5018614;28;87777;-56
2021/12/21 02:26:04;;;;;;;5.38;1.90;;;18.50;57.20;;;;;;5021579;28;87494;-54
2021/12/21 02:30:48;;;;;;;3.90;2.00;;;18.50;57.20;;;;;;4994411;28;89164;-55
2021/12/21 02:33:15;;;;;;;2.67;1.95;;;18.40;57.20;;;;;;5014901;28;87345;-56
2021/12/21 02:35:41;;;;;;;3.08;2.00;;;18.40;57.20;;;;;;4997324;28;88641;-55
2021/12/21 02:38:07;;;;;;;3.95;2.20;;;18.40;57.30;;;;;;5017729;28;87796;-56
2021/12/21 02:40:33;;;;;;;5.38;2.10;;;18.40;57.30;;;;;;5022157;28;88385;-55
2021/12/21 02:42:59;;;;;;;4.10;2.10;;;18.40;57.30;;;;;;5017688;28;87934;-57
2021/12/21 02:45:24;;;;;;;3.85;2.47;;;18.40;57.30;;;;;;5019963;28;88136;-54
2021/12/21 02:47:50;;;;;;;4.95;2.28;;;18.40;57.30;;;;;;5016612;28;88035;-54
2021/12/21 02:50:16;;;;;;;5.70;2.50;;;18.40;57.40;;;;;;5023045;28;87786;-57
2021/12/21 02:52:42;;;;;;;4.50;2.13;;;18.40;57.40;;;;;;5015896;28;88111;-56
2021/12/21 02:55:08;;;;;;;4.93;2.03;;;18.40;57.40;;;;;;5016043;28;87853;-54
2021/12/21 02:57:34;;;;;;;4.43;1.90;;;18.40;57.40;;;;;;5016072;28;88085;-55
2021/12/21 03:00:03;;;;;;;5.05;2.47;;;18.30;57.40;;;;;;5016044;28;88693;-55
2021/12/21 03:02:31;;;;;;;4.28;2.45;;;18.30;57.40;;;;;;5022499;28;88700;-55
2021/12/21 03:04:56;;;;;;;3.33;2.00;;;18.30;57.40;;;;;;5015776;28;88231;-55
2021/12/21 03:10:11;;;;;;;5.53;2.67;;;18.30;57.40;;;;;;5016325;28;88086;-54
2021/12/21 03:15:25;;;;;;;3.40;1.90;;;18.20;57.40;;;;;;5016557;28;87409;-57
2021/12/21 03:17:52;;;;;;;3.47;1.83;;;18.30;57.50;;;;;;5011172;28;89099;-55
2021/12/21 03:20:19;;;;;;;4.13;1.77;;;18.20;57.50;;;;;;5016761;28;89038;-55
2021/12/21 03:22:45;;;;;;;4.10;2.08;;;18.20;57.50;;;;;;5020162;28;87490;-54
2021/12/21 03:25:11;;;;;;;4.00;1.98;;;18.20;57.50;;;;;;5017435;28;88616;-57
2021/12/21 03:27:37;;;;;;;5.10;2.58;;;18.20;57.50;;;;;;5015596;28;88058;-55
2021/12/21 03:30:05;;;;;;;3.10;2.10;;;18.20;57.50;;;;;;5019325;28;87792;-58
2021/12/21 03:32:31;;;;;;;3.65;1.85;;;18.20;57.50;;;;;;5011419;28;87864;-57
2021/12/21 03:34:57;;;;;;;4.65;2.17;;;18.20;57.50;;;;;;5016085;28;88142;-55
2021/12/21 03:37:22;;;;;;;2.42;1.75;;;18.20;57.50;;;;;;4994418;28;88473;-55
2021/12/21 03:39:50;;;;;;;4.10;1.60;;;18.10;57.50;;;;;;5015420;28;88107;-55
2021/12/21 03:42:16;;;;;;;5.32;2.47;;;18.10;57.50;;;;;;5017812;28;87874;-54
2021/12/21 03:44:42;;;;;;;2.75;2.00;;;18.10;57.50;;;;;;5022105;28;87922;-58
2021/12/21 03:47:10;;;;;;;4.18;2.10;;;18.10;57.50;;;;;;5023576;28;87284;-54
2021/12/21 03:52:10;;;;;;;3.58;1.90;;;18.10;57.50;;;;;;5022590;28;88518;-55
2021/12/21 03:54:38;;;;;;;3.45;2.35;;;18.10;57.50;;;;;;5019899;28;88621;-54
2021/12/21 03:57:04;;;;;;;3.40;1.95;;;18.10;57.50;;;;;;5019237;28;87848;-56
2021/12/21 03:59:30;;;;;;;2.88;1.80;;;18.10;57.50;;;;;;5012675;28;87878;-57
2021/12/21 04:01:56;;;;;;;5.28;2.00;;;18.10;57.50;;;;;;5022219;28;87957;-55
2021/12/21 04:04:23;;;;;;;5.28;2.63;;;18.10;57.50;;;;;;5022096;28;87170;-55
2021/12/21 04:06:49;;;;;;;3.38;1.67;;;18.00;57.50;;;;;;5021958;28;87410;-55
2021/12/21 04:09:15;;;;;;;3.92;2.10;;;18.00;57.50;;;;;;5022642;28;88165;-55
2021/12/21 04:11:41;;;;;;;3.63;2.35;;;18.00;57.50;;;;;;5019067;28;88136;-55
2021/12/21 04:14:07;;;;;;;4.00;1.92;;;18.00;57.50;;;;;;5016778;28;88107;-55
2021/12/21 04:16:33;;;;;;;3.58;2.30;;;18.00;57.50;;;;;;5015014;28;87547;-54
2021/12/21 04:18:59;;;;;;;3.58;2.00;;;18.00;57.50;;;;;;5014774;28;87994;-54
2021/12/21 04:21:25;;;;;;;4.25;2.10;;;18.00;57.50;;;;;;5022339;28;88271;-57
2021/12/21 04:23:51;;;;;;;3.88;2.20;;;18.00;57.50;;;;;;5019715;28;87381;-54
2021/12/21 04:26:17;;;;;;;3.50;2.10;;;17.90;57.50;;;;;;5024027;28;87693;-55
2021/12/21 04:28:43;;;;;;;4.13;2.22;;;17.90;57.50;;;;;;5019644;28;89315;-54
2021/12/21 04:31:10;;;;;;;4.32;2.15;;;17.90;57.50;;;;;;5023011;28;88038;-54
2021/12/21 04:33:37;;;;;;;3.33;1.95;;;17.90;57.50;;;;;;5017965;28;87770;-54
2021/12/21 04:36:03;;;;;;;3.25;1.88;;;17.90;57.50;;;;;;5018243;28;87127;-54
2021/12/21 04:38:33;;;;;;;3.72;1.88;;;17.90;57.50;;;;;;5017733;28;90049;-54
2021/12/21 04:41:44;;;;;;;3.25;2.00;;;17.90;57.50;;;;;;4994401;28;89255;-58
2021/12/21 04:43:52;;;;;;;2.90;2.00;;;17.90;57.50;;;;;;5014627;28;87740;-55
2021/12/21 04:46:18;;;;;;;2.88;2.00;;;17.90;57.50;;;;;;5022693;28;88488;-55
2021/12/21 04:48:44;;;;;;;3.22;1.90;;;17.90;57.50;;;;;;5020591;28;87437;-58
2021/12/21 04:51:10;;;;;;;6.05;2.30;;;17.90;57.50;;;;;;5019241;28;87777;-54
2021/12/21 04:53:35;;;;;;;2.35;1.70;;;17.80;57.50;;;;;;5019296;28;88753;-55
2021/12/21 04:56:02;;;;;;;4.13;1.98;;;17.90;57.50;;;;;;5014590;28;87138;-55
2021/12/21 04:58:29;;;;;;;5.40;2.38;;;17.80;57.50;;;;;;5017584;28;88142;-54
2021/12/21 05:00:54;;;;;;;2.72;1.90;;;17.80;57.50;;;;;;5021424;28;88359;-57
2021/12/21 05:03:20;;;;;;;3.78;2.58;;;17.80;57.50;;;;;;5020626;28;89013;-57
2021/12/21 05:05:46;;;;;;;4.43;1.92;;;17.80;57.50;;;;;;5022445;28;87591;-57
2021/12/21 05:08:20;;;;;;;2.53;1.63;;;17.80;57.50;;;;;;5017795;28;88067;-55
2021/12/21 05:10:49;;;;;;;3.53;1.88;;;17.80;57.50;;;;;;5013688;28;88196;-55
2021/12/21 05:13:17;;;;;;;7.10;2.10;;;17.80;57.50;;;;;;5014878;28;87709;-57
2021/12/21 05:15:43;;;;;;;4.82;2.00;;;17.80;57.50;;;;;;5017622;28;88201;-58
2021/12/21 05:18:14;;;;;;;3.47;2.22;;;17.80;57.50;;;;;;5017026;28;88112;-57
2021/12/21 05:20:40;;;;;;;2.83;1.98;;;17.70;57.40;;;;;;5022155;28;88206;-55
2021/12/21 05:23:07;;;;;;;4.47;2.60;;;17.80;57.50;;;;;;5020535;28;88230;-56
2021/12/21 05:25:33;;;;;;;3.80;2.25;;;17.80;57.50;;;;;;5022171;28;87534;-54
2021/12/21 05:27:59;;;;;;;3.78;2.00;;;17.70;57.40;;;;;;5021217;28;88933;-58
2021/12/21 05:30:26;;;;;;;4.13;2.08;;;17.70;57.50;;;;;;5021255;28;90091;-56
2021/12/21 05:32:52;;;;;;;4.60;1.95;;;17.70;57.40;;;;;;5020021;28;88047;-54
2021/12/21 05:35:18;;;;;;;3.45;1.73;;;17.70;57.40;;;;;;5017249;28;89517;-54
2021/12/21 05:37:46;;;;;;;3.17;1.60;;;17.70;57.40;;;;;;5016579;28;88291;-55
2021/12/21 05:40:17;;;;;;;4.32;2.50;;;17.70;57.40;;;;;;5021368;28;87894;-56
2021/12/21 05:42:44;;;;;;;2.83;1.70;;;17.70;57.40;;;;;;5017114;28;87675;-54
2021/12/21 05:45:13;;;;;;;4.35;1.95;;;17.60;57.40;;;;;;5010007;28;89012;-55
2021/12/21 05:47:39;;;;;;;3.63;1.85;;;17.60;57.40;;;;;;5021012;28;88133;-54
2021/12/21 05:50:09;;;;;;;4.35;2.13;;;17.60;57.40;;;;;;4992852;28;88853;-54
2021/12/21 05:52:35;;;;;;;3.05;2.00;;;17.60;57.40;;;;;;5011678;28;89161;-54
2021/12/21 05:55:01;;;;;;;3.70;2.20;;;17.60;57.40;;;;;;5015216;28;87785;-54
2021/12/21 05:57:26;;;;;;;3.78;2.40;;;17.60;57.40;;;;;;5020950;28;87898;-55
2021/12/21 05:59:52;;;;;;;4.63;2.17;;;17.60;57.40;;;;;;5017031;28;87756;-55
2021/12/21 06:02:18;;;;;;;3.05;2.05;;;17.60;57.40;;;;;;5020385;28;87614;-59
2021/12/21 06:04:44;;;;;;;4.70;1.88;;;17.60;57.40;;;;;;5011989;28;87588;-55
2021/12/21 06:07:10;;;;;;;3.85;2.00;;;17.60;57.40;;;;;;5020240;28;87911;-57
2021/12/21 06:09:36;;;;;;;3.53;2.08;;;17.50;57.30;;;;;;4993705;28;90385;-54
2021/12/21 06:12:15;;;;;;;8.73;2.17;;;17.50;57.30;;;;;;5023240;28;87422;-56
2021/12/21 06:25:52;;;;;;;5.35;2.38;;;17.50;57.40;;;;;;5017654;28;87182;-57
2021/12/21 06:28:18;;;;;;;3.67;2.00;;;17.50;57.30;;;;;;5017981;28;87647;-57
2021/12/21 06:30:43;;;;;;;4.15;2.00;;;17.50;57.30;;;;;;5016698;28;88434;-56
2021/12/21 06:33:09;;;;;;;2.40;1.77;;;17.50;57.30;;;;;;5017292;28;87202;-56
2021/12/21 06:35:36;;;;;;;4.85;2.47;;;17.50;57.40;;;;;;5010335;28;90648;-54
2021/12/21 06:38:03;;;;;;;3.58;2.10;;;17.50;57.40;;;;;;4990928;28;90438;-55
2021/12/21 06:40:29;;;;;;;3.97;2.20;;;17.50;57.20;;;;;;5016289;28;87896;-56
2021/12/21 06:42:55;;;;;;;5.95;2.45;;;17.60;57.00;;;;;;5009497;28;89103;-55
2021/12/21 06:46:10;;;;;;;3.42;2.17;;;17.70;56.90;;;;;;5016383;28;87717;-54
2021/12/21 06:51:15;;;;;;;4.43;2.00;;;18.00;56.60;;;;;;5016377;28;87823;-53
2021/12/21 06:53:43;;;;;;;14.77;2.60;;;18.10;56.40;;;;;;5022132;28;87715;-54
2021/12/21 06:56:09;;;;;;;157.10;19.92;;;18.30;56.20;;;;;;5010155;28;88015;-56
2021/12/21 06:58:35;;;;;;;126.18;15.75;;;18.40;56.00;;;;;;5014835;28;88239;-58
2021/12/21 07:01:03;;;;;;;89.63;12.60;;;18.50;55.90;;;;;;5016225;28;89011;-55
2021/12/21 07:03:29;;;;;;;58.75;9.93;;;18.50;55.90;;;;;;5015976;28;87611;-57
2021/12/21 07:05:54;;;;;;;66.38;8.82;;;18.60;56.00;;;;;;5023116;28;88100;-54
2021/12/21 07:08:26;;;;;;;45.78;7.60;;;18.60;56.00;;;;;;5016452;28;89245;-54
2021/12/21 07:11:09;;;;;;;45.78;9.32;;;18.60;56.10;;;;;;5018309;28;88969;-56
2021/12/21 07:19:17;;;;;;;22.95;6.40;;;18.70;56.10;;;;;;5015901;28;87828;-58
2021/12/21 07:21:43;;;;;;;27.85;5.80;;;18.80;56.10;;;;;;5014886;28;88509;-59
2021/12/21 07:24:09;;;;;;;23.83;5.20;;;18.80;55.90;;;;;;5022105;28;87197;-59
2021/12/21 07:26:34;;;;;;;20.63;6.13;;;18.90;55.70;;;;;;4993634;28;90213;-59
2021/12/21 07:29:06;;;;;;;24.52;6.50;;;18.90;55.40;;;;;;5021892;28;87870;-58
2021/12/21 07:31:32;;;;;;;27.63;6.88;;;19.00;55.40;;;;;;5014780;28;87578;-59
2021/12/21 07:33:58;;;;;;;21.05;5.72;;;19.00;55.30;;;;;;5014193;28;89518;-59
2021/12/21 07:36:25;;;;;;;23.15;7.53;;;19.10;55.50;;;;;;5014324;28;87744;-59
2021/12/21 07:38:51;;;;;;;28.85;6.97;;;19.20;55.40;;;;;;4990431;28;90150;-59
2021/12/21 07:41:20;;;;;;;35.13;7.05;;;19.30;55.50;;;;;;5010351;28;88394;-59
2021/12/21 07:43:46;;;;;;;30.35;6.60;;;19.30;55.40;;;;;;5013029;28;87816;-62
2021/12/21 07:46:11;;;;;;;26.60;6.55;;;19.40;55.30;;;;;;5015822;28;88079;-59
2021/12/21 07:48:37;;;;;;;28.48;6.38;;;19.50;55.30;;;;;;5009542;28;88126;-59
2021/12/21 07:51:05;;;;;;;28.98;6.57;;;19.50;54.90;;;;;;5011129;28;91029;-59
2021/12/21 07:53:31;;;;;;;23.85;6.10;;;19.60;54.40;;;;;;5010797;28;87629;-59
2021/12/21 07:56:01;;;;;;;23.98;6.53;;;19.60;54.40;;;;;;5010482;28;87784;-59
2021/12/21 07:58:29;;;;;;;20.10;5.75;;;19.70;54.30;;;;;;5010472;28;89053;-59
2021/12/21 08:00:58;;;;;;;26.83;6.18;;;19.70;54.20;;;;;;5012992;28;89090;-59
2021/12/21 08:03:24;;;;;;;25.40;5.85;;;19.80;54.20;;;;;;4991566;28;87561;-59
2021/12/21 08:05:53;;;;;;;21.33;5.90;;;19.90;54.10;;;;;;5013245;28;87612;-58
2021/12/21 08:08:22;;;;;;;20.77;6.30;;;19.90;53.90;;;;;;5008993;28;87939;-59
2021/12/21 08:10:55;;;;;;;24.13;5.47;;;20.00;53.90;;;;;;5008485;28;87835;-59
2021/12/21 08:13:21;;;;;;;;;;;20.00;53.80;;;;;;5011141;28;88371;-60
2021/12/21 08:15:48;;;;;;;23.80;5.80;;;20.10;53.80;;;;;;5015052;28;87371;-59
2021/12/21 08:18:14;;;;;;;13.88;4.90;;;20.10;53.80;;;;;;5009165;28;87695;-59
2021/12/21 08:20:41;;;;;;;14.00;4.75;;;20.10;53.60;;;;;;5012533;28;87986;-59
2021/12/21 08:23:09;;;;;;;18.52;4.90;;;20.20;53.60;;;;;;5012082;28;88827;-59
2021/12/21 08:25:36;;;;;;;20.45;5.50;;;20.20;53.40;;;;;;5009841;28;87472;-58
2021/12/21 08:28:03;;;;;;;17.77;4.30;;;20.20;53.30;;;;;;5013428;28;88230;-59
2021/12/21 08:30:29;;;;;;;20.00;5.32;;;20.20;53.10;;;;;;5015457;27;89896;-59
2021/12/21 08:32:57;;;;;;;14.07;5.22;;;20.20;53.00;;;;;;5012577;28;88125;-59
2021/12/21 08:35:23;;;;;;;15.13;4.60;;;20.20;52.80;;;;;;5001369;28;89895;-57
2021/12/21 08:37:52;;;;;;;16.65;4.70;;;20.20;52.70;;;;;;5016154;28;88839;-57
2021/12/21 08:40:22;;;;;;;15.75;4.63;;;20.20;52.60;;;;;;5014306;28;87435;-58
2021/12/21 08:42:50;;;;;;;14.80;4.82;;;20.20;52.50;;;;;;5014387;28;87868;-56
2021/12/21 08:45:16;;;;;;;16.10;4.90;;;20.20;52.50;;;;;;5015750;28;87592;-56
2021/12/21 08:47:42;;;;;;;15.60;4.57;;;20.20;52.40;;;;;;4958669;28;89190;-56
2021/12/21 08:50:11;;;;;;;16.42;4.95;;;20.20;52.40;;;;;;5013642;28;88069;-57
2021/12/21 08:52:37;;;;;;;18.70;4.93;;;20.20;52.40;;;;;;5013640;28;88209;-56
2021/12/21 08:55:08;;;;;;;10.25;4.07;;;20.20;52.30;;;;;;5018613;28;87999;-56
2021/12/21 08:57:36;;;;;;;15.35;4.22;;;20.20;52.40;;;;;;4994890;28;91231;-57
2021/12/21 09:00:03;;;;;;;19.52;4.90;;;20.10;52.40;;;;;;4994806;28;91066;-56
2021/12/21 09:02:33;;;;;;;15.15;4.38;;;20.20;52.40;;;;;;5011000;28;87631;-58
2021/12/21 09:04:58;;;;;;;11.10;4.38;;;20.10;52.40;;;;;;5013357;28;88855;-58
2021/12/21 09:07:24;;;;;;;13.10;4.57;;;20.10;52.50;;;;;;5011434;28;88376;-56
2021/12/21 09:09:50;;;;;;;13.80;5.10;;;20.10;52.50;;;;;;5013110;28;87942;-56
2021/12/21 09:12:15;;;;;;;17.27;4.70;;;20.10;52.60;;;;;;5013741;28;89117;-56
2021/12/21 09:14:41;;;;;;;11.02;4.03;;;20.00;52.60;;;;;;5011826;28;87207;-57
2021/12/21 09:17:07;;;;;;;15.48;4.70;;;20.00;52.70;;;;;;5013173;28;88133;-56
2021/12/21 09:19:32;;;;;;;11.80;4.32;;;20.00;52.80;;;;;;4993979;28;90116;-59
2021/12/21 09:22:00;;;;;;;11.60;4.38;;;20.00;52.80;;;;;;5010518;28;87480;-57
2021/12/21 09:24:26;;;;;;;13.38;4.25;;;20.00;52.90;;;;;;5008446;28;88882;-56
2021/12/21 09:26:52;;;;;;;12.57;4.18;;;19.90;52.90;;;;;;5013517;28;87931;-57
2021/12/21 09:29:17;;;;;;;10.45;4.07;;;19.90;53.50;;;;;;5014252;28;88940;-57
2021/12/21 09:31:43;;;;;;;8.55;3.92;;;19.90;53.00;;;;;;5010294;28;88124;-59
2021/12/21 09:34:09;;;;;;;11.98;4.00;;;19.90;53.10;;;;;;5010921;28;89118;-57
2021/12/21 09:36:34;;;;;;;14.70;4.40;;;19.90;53.10;;;;;;5011916;28;88851;-58
2021/12/21 09:39:00;;;;;;;18.13;4.30;;;19.90;53.10;;;;;;5013659;28;88803;-59
2021/12/21 09:41:26;;;;;;;10.80;3.40;;;19.80;53.00;;;;;;4995884;28;88260;-56
2021/12/21 09:43:52;;;;;;;11.45;4.07;;;19.90;53.00;;;;;;5016119;28;87062;-56
2021/12/21 09:46:18;;;;;;;8.00;3.83;;;19.80;52.90;;;;;;5011061;28;87262;-56
2021/12/21 09:48:44;;;;;;;9.77;3.53;;;19.80;53.00;;;;;;5012302;28;88374;-58
2021/12/21 09:51:10;;;;;;;9.30;3.47;;;19.80;52.90;;;;;;5012377;28;87787;-57
2021/12/21 09:53:37;;;;;;;8.00;3.65;;;19.80;52.90;;;;;;5010250;28;87521;-57
2021/12/21 09:56:05;;;;;;;8.93;3.95;;;19.80;52.90;;;;;;5010742;28;88948;-56
2021/12/21 09:58:31;;;;;;;8.82;3.20;;;19.80;53.00;;;;;;5013615;28;87533;-58
2021/12/21 10:00:56;;;;;;;8.13;3.95;;;19.80;53.00;;;;;;5009543;28;88862;-59
2021/12/21 10:03:23;;;;;;;11.57;4.22;;;19.80;53.00;;;;;;5009925;27;87778;-60
2021/12/21 10:05:49;;;;;;;8.73;3.67;;;19.90;53.40;;;;;;5010009;28;87710;-61
2021/12/21 10:08:17;;;;;;;12.15;4.32;;;19.90;53.70;;;;;;5005450;28;90886;-59
2021/12/21 10:10:47;;;;;;;8.98;3.95;;;19.90;53.90;;;;;;5012261;28;87425;-61
2021/12/21 10:13:21;;;;;;;10.18;4.00;;;20.00;54.30;;;;;;5012948;28;87983;-61
2021/12/21 10:15:49;;;;;;;8.77;3.45;;;20.00;54.50;;;;;;5015430;28;87723;-60
2021/12/21 10:18:26;;;;;;;12.57;4.05;;;20.10;54.60;;;;;;5014721;28;88593;-58
2021/12/21 10:20:53;;;;;;;11.27;3.53;;;20.10;54.70;;;;;;5012456;28;87916;-59
2021/12/21 10:23:20;;;;;;;12.02;4.25;;;20.10;54.80;;;;;;5008343;28;87351;-60
2021/12/21 10:25:55;;;;;;;12.15;3.97;;;20.10;54.90;;;;;;5010241;28;88838;-60
2021/12/21 10:28:35;;;;;;;11.30;3.92;;;20.10;55.10;;;;;;5010765;28;88185;-62
2021/12/21 10:31:22;;;;;;;8.63;3.72;;;20.10;55.20;;;;;;5011783;28;87711;-58
2021/12/21 10:33:48;;;;;;;8.60;3.50;;;20.20;55.60;;;;;;5013383;28;88115;-58
2021/12/21 10:36:14;;;;;;;8.35;3.90;;;20.10;55.40;;;;;;5012192;28;88216;-66
2021/12/21 10:38:56;;;;;;;11.88;4.10;;;20.20;55.80;;;;;;4993347;28;89085;-60
2021/12/21 10:41:39;;;;;;;9.75;3.65;;;20.20;55.70;;;;;;4991881;28;87216;-62
2021/12/21 10:44:06;;;;;;;9.98;3.65;;;20.20;55.80;;;;;;4990450;28;89538;-60
2021/12/21 10:46:39;;;;;;;10.63;3.53;;;20.20;55.90;;;;;;5010309;28;88314;-60
2021/12/21 10:49:10;;;;;;;9.88;3.33;;;20.20;55.70;;;;;;5011314;28;89474;-60
2021/12/21 10:51:37;;;;;;;7.35;3.50;;;20.30;55.60;;;;;;5011000;28;89003;-60
2021/12/21 10:54:03;;;;;;;9.82;3.50;;;20.30;55.50;;;;;;5009293;28;87743;-59
2021/12/21 10:56:29;;;;;;;7.40;3.55;;;20.30;55.40;;;;;;5013916;28;90136;-60
2021/12/21 10:58:55;;;;;;;15.25;3.67;;;20.30;55.40;;;;;;5009738;28;87435;-59
2021/12/21 11:01:27;;;;;;;8.68;3.50;;;20.30;55.30;;;;;;5010656;28;87567;-61
2021/12/21 11:03:55;;;;;;;7.95;3.53;;;20.30;55.20;;;;;;5011544;28;87403;-60
2021/12/21 11:06:31;;;;;;;7.35;2.95;;;20.30;55.20;;;;;;5010427;28;89591;-60
2021/12/21 11:08:57;;;;;;;8.23;3.08;;;20.20;55.10;;;;;;5012865;28;88316;-60
2021/12/21 11:11:29;;;;;;;7.57;3.22;;;20.20;55.10;;;;;;5008023;28;87828;-60
2021/12/21 11:13:58;;;;;;;7.18;3.63;;;20.20;55.20;;;;;;5008667;28;87615;-61
2021/12/21 11:16:34;;;;;;;5.90;3.22;;;20.20;55.10;;;;;;5007891;28;88697;-59
2021/12/21 11:19:00;;;;;;;8.23;3.03;;;20.20;55.10;;;;;;5010605;28;90294;-60
2021/12/21 11:21:25;;;;;;;9.10;3.38;;;20.20;55.10;;;;;;5015268;28;87810;-61
2021/12/21 11:23:51;;;;;;;6.32;3.30;;;20.20;55.20;;;;;;5010947;28;87787;-64
2021/12/21 11:26:17;;;;;;;8.55;3.00;;;20.20;55.20;;;;;;5012739;28;87722;-62
2021/12/21 11:28:43;;;;;;;4.90;2.80;;;20.20;55.10;;;;;;5011140;28;88518;-62
2021/12/21 11:31:09;;;;;;;5.78;3.25;;;20.20;55.00;;;;;;5009508;28;87816;-61
2021/12/21 11:33:44;;;;;;;10.07;4.10;;;20.20;54.90;;;;;;5010961;28;86785;-62
2021/12/21 11:38:56;;;;;;;6.47;3.20;;;20.30;54.80;;;;;;5015200;28;87598;-62
2021/12/21 11:41:23;;;;;;;5.93;3.22;;;20.40;54.70;;;;;;5020718;28;88525;-61
2021/12/21 11:43:57;;;;;;;7.00;3.45;;;20.40;54.70;;;;;;5012310;28;88288;-60
2021/12/21 11:46:35;;;;;;;6.80;3.17;;;20.40;54.60;;;;;;5013369;28;88779;-61
2021/12/21 11:49:16;;;;;;;6.07;3.08;;;20.30;54.50;;;;;;5015285;28;87979;-62
2021/12/21 11:51:42;;;;;;;8.23;3.78;;;20.30;54.60;;;;;;5008988;28;87389;-62
2021/12/21 11:54:17;;;;;;;5.00;2.72;;;20.30;54.50;;;;;;5017988;28;87568;-62
2021/12/21 11:56:43;;;;;;;9.77;3.10;;;20.30;54.50;;;;;;5011867;28;88139;-62
2021/12/21 11:59:09;;;;;;;7.05;3.10;;;20.30;54.50;;;;;;5004967;28;88762;-62
2021/12/21 12:01:35;;;;;;;5.78;2.97;;;20.30;54.50;;;;;;5013669;28;87655;-60
2021/12/21 12:04:04;;;;;;;5.97;2.97;;;20.30;54.40;;;;;;5017838;27;87343;-62
2021/12/21 12:06:47;;;;;;;6.00;2.92;;;20.30;54.40;;;;;;5015682;28;88896;-62
2021/12/21 12:09:33;;;;;;;;;;;20.20;54.40;;;;;;5019061;28;88416;-62
2021/12/21 12:12:11;;;;;;;7.82;3.13;;;20.20;54.50;;;;;;5020596;28;87278;-62
2021/12/21 12:14:42;;;;;;;6.53;2.83;;;20.20;54.50;;;;;;5021171;28;88268;-62
2021/12/21 12:17:20;;;;;;;5.97;3.45;;;20.20;54.50;;;;;;5017976;28;88157;-60
2021/12/21 12:19:55;;;;;;;7.38;3.42;;;20.20;54.50;;;;;;5018818;28;88031;-60
2021/12/21 12:22:40;;;;;;;7.15;3.13;;;20.10;54.50;;;;;;5017786;28;87455;-62
2021/12/21 12:25:33;;;;;;;6.20;3.10;;;20.10;54.50;;;;;;5018531;28;87212;-62
2021/12/21 12:28:01;;;;;;;6.32;2.90;;;20.10;54.60;;;;;;5011041;28;87605;-61
2021/12/21 12:30:28;;;;;;;6.93;3.20;;;20.00;54.60;;;;;;5016510;28;88930;-62
2021/12/21 12:33:01;;;;;;;5.55;2.88;;;20.10;54.70;;;;;;5013205;28;88794;-60
2021/12/21 12:35:36;;;;;;;6.00;3.23;;;20.10;54.50;;;;;;5017173;28;87086;-60
2021/12/21 12:38:06;;;;;;;7.25;3.17;;;20.10;54.50;;;;;;5017179;28;87966;-61
2021/12/21 12:40:33;;;;;;;6.10;3.05;;;20.20;54.50;;;;;;4995189;28;88252;-60
2021/12/21 12:43:08;;;;;;;5.20;2.80;;;20.20;54.40;;;;;;5016957;28;87192;-60
2021/12/21 12:46:08;;;;;;;5.82;3.03;;;20.30;54.50;;;;;;5008458;28;87561;-59
2021/12/21 12:48:47;;;;;;;5.40;3.15;;;20.30;54.50;;;;;;5015519;28;87972;-60
2021/12/21 12:51:34;;;;;;;6.50;3.13;;;20.30;54.40;;;;;;5015301;28;89628;-60
2021/12/21 12:54:00;;;;;;;6.53;2.80;;;20.40;54.30;;;;;;5013769;28;87597;-59
2021/12/21 12:56:26;;;;;;;4.82;3.08;;;20.40;54.30;;;;;;5017028;28;87860;-60
2021/12/21 12:58:56;;;;;;;4.40;2.83;;;20.40;54.20;;;;;;5013951;28;88904;-60
2021/12/21 13:01:25;;;;;;;4.85;2.70;;;20.40;54.20;;;;;;5017717;28;89769;-60
2021/12/21 13:03:57;;;;;;;7.88;2.88;;;20.40;54.10;;;;;;5017265;28;88060;-60
2021/12/21 13:06:28;;;;;;;5.25;2.70;;;20.40;53.80;;;;;;5008641;28;87647;-60
2021/12/21 13:08:54;;;;;;;8.00;2.78;;;20.40;53.80;;;;;;5010774;28;88700;-60
2021/12/21 13:11:25;;;;;;;4.43;2.47;;;20.30;53.80;;;;;;5014838;28;87904;-60
2021/12/21 13:13:53;;;;;;;6.07;3.33;;;20.40;53.90;;;;;;5011484;28;88058;-60
2021/12/21 13:16:25;;;;;;;6.38;2.95;;;20.30;53.90;;;;;;5020320;28;87440;-60
2021/12/21 13:18:57;;;;;;;5.57;2.53;;;20.30;53.90;;;;;;5014561;28;89329;-60
2021/12/21 13:21:44;;;;;;;4.97;2.63;;;20.30;53.90;;;;;;5015833;28;88629;-60
2021/12/21 13:24:20;;;;;;;5.15;2.92;;;20.30;53.90;;;;;;5012298;28;89101;-59
2021/12/21 13:26:55;;;;;;;6.97;3.40;;;20.30;54.00;;;;;;5018299;28;87791;-60
2021/12/21 13:29:33;;;;;;;5.55;3.10;;;20.20;54.00;;;;;;5019624;28;87737;-60
2021/12/21 13:32:01;;;;;;;3.75;2.67;;;20.20;54.00;;;;;;5015516;28;87959;-60
2021/12/21 13:34:28;;;;;;;5.03;2.65;;;20.20;54.10;;;;;;5018938;28;88328;-60
2021/12/21 13:36:57;;;;;;;6.57;3.17;;;20.30;54.10;;;;;;5018700;28;88256;-60
2021/12/21 13:39:36;;;;;;;4.60;3.28;;;20.30;54.10;;;;;;5009984;28;87924;-60
2021/12/21 13:42:17;;;;;;;5.30;2.97;;;20.30;54.00;;;;;;5021330;28;87855;-60
2021/12/21 13:44:55;;;;;;;5.25;2.92;;;20.40;53.90;;;;;;5012565;28;88405;-60
2021/12/21 13:47:34;;;;;;;5.05;2.80;;;20.40;53.70;;;;;;5018657;28;87894;-60
2021/12/21 13:50:23;;;;;;;4.88;2.97;;;20.50;53.70;;;;;;5019417;28;88709;-60
2021/12/21 13:52:59;;;;;;;3.42;2.38;;;20.50;53.50;;;;;;5008947;28;88075;-60
2021/12/21 13:55:30;;;;;;;4.05;3.03;;;20.70;53.40;;;;;;4997401;28;87828;-60
2021/12/21 13:58:04;;;;;;;4.30;2.65;;;20.70;53.70;;;;;;5007202;28;87986;-60
2021/12/21 14:00:34;;;;;;;4.35;2.50;;;20.80;53.90;;;;;;5009644;28;88274;-59
2021/12/21 14:03:15;;;;;;;5.32;2.75;;;20.80;54.10;;;;;;5014062;28;88249;-61
2021/12/21 14:05:44;;;;;;;4.38;2.33;;;20.80;54.40;;;;;;5007948;28;87747;-60